Аэропорт: Кривой Рог. Кривой Рог

ICAO: UKDR

METAR:
2018/11/19 10:00
UKDR 191000Z 09005MPS 030V140 CAVOK 03/M06 Q1023 R36/09//70 NOSIG
METAR:
2018/11/19 06:00
TAF UKDR 190510Z 1906/2006 08007G12MPS 6000 BKN011 TX04/1912Z TNM01/2004Z 
      TEMPO 1906/1908 2100 BR OVC007 
      TEMPO 1912/1916 2100 -SHSNRA BKN005 BKN015CB 
      TEMPO 1916/2006 06010G15MPS 1000 SHSNRA BKN003 BKN015CB